sensor_id;sensor_type;location;lat;lon;timestamp;P1;durP1;ratioP1;P2;durP2;ratioP2
6424;SDS011;12193;42.642;23.384;2024-02-26T00:01:39;12.40;;;6.90;;
6424;SDS011;12193;42.642;23.384;2024-02-26T00:04:09;11.43;;;6.60;;
6424;SDS011;12193;42.642;23.384;2024-02-26T00:06:39;15.20;;;7.50;;
6424;SDS011;12193;42.642;23.384;2024-02-26T00:09:09;11.90;;;7.43;;
6424;SDS011;12193;42.642;23.384;2024-02-26T00:11:38;14.00;;;7.53;;
6424;SDS011;12193;42.642;23.384;2024-02-26T00:14:08;15.07;;;8.10;;
6424;SDS011;12193;42.642;23.384;2024-02-26T00:16:42;12.83;;;7.90;;
6424;SDS011;12193;42.642;23.384;2024-02-26T00:19:11;13.47;;;8.50;;
6424;SDS011;12193;42.642;23.384;2024-02-26T00:21:41;16.33;;;8.07;;
6424;SDS011;12193;42.642;23.384;2024-02-26T00:24:10;14.03;;;7.80;;
6424;SDS011;12193;42.642;23.384;2024-02-26T00:26:39;12.13;;;7.77;;
6424;SDS011;12193;42.642;23.384;2024-02-26T00:29:08;14.70;;;7.80;;
6424;SDS011;12193;42.642;23.384;2024-02-26T00:31:38;14.27;;;8.30;;
6424;SDS011;12193;42.642;23.384;2024-02-26T00:34:10;12.00;;;8.00;;
6424;SDS011;12193;42.642;23.384;2024-02-26T00:36:39;12.47;;;8.30;;
6424;SDS011;12193;42.642;23.384;2024-02-26T00:39:08;14.13;;;7.87;;
6424;SDS011;12193;42.642;23.384;2024-02-26T00:41:38;12.97;;;7.90;;
6424;SDS011;12193;42.642;23.384;2024-02-26T00:44:08;15.87;;;8.70;;
6424;SDS011;12193;42.642;23.384;2024-02-26T00:46:37;14.03;;;8.47;;
6424;SDS011;12193;42.642;23.384;2024-02-26T00:49:06;15.50;;;8.93;;
6424;SDS011;12193;42.642;23.384;2024-02-26T00:51:38;15.23;;;8.60;;
6424;SDS011;12193;42.642;23.384;2024-02-26T00:54:07;15.47;;;8.20;;
6424;SDS011;12193;42.642;23.384;2024-02-26T00:56:37;12.83;;;8.10;;
6424;SDS011;12193;42.642;23.384;2024-02-26T00:59:06;10.97;;;8.10;;
6424;SDS011;12193;42.642;23.384;2024-02-26T01:01:35;16.30;;;8.83;;
6424;SDS011;12193;42.642;23.384;2024-02-26T01:04:04;13.83;;;8.03;;
6424;SDS011;12193;42.642;23.384;2024-02-26T04:08:22;15.47;;;9.00;;
6424;SDS011;12193;42.642;23.384;2024-02-26T04:10:51;14.83;;;9.47;;
6424;SDS011;12193;42.642;23.384;2024-02-26T04:13:21;14.77;;;9.07;;
6424;SDS011;12193;42.642;23.384;2024-02-26T04:15:50;16.37;;;8.50;;
6424;SDS011;12193;42.642;23.384;2024-02-26T04:18:20;17.07;;;9.47;;
6424;SDS011;12193;42.642;23.384;2024-02-26T04:20:49;14.03;;;8.10;;
6424;SDS011;12193;42.642;23.384;2024-02-26T04:23:18;13.57;;;8.07;;
6424;SDS011;12193;42.642;23.384;2024-02-26T04:25:50;17.83;;;9.03;;
6424;SDS011;12193;42.642;23.384;2024-02-26T04:28:19;12.60;;;7.60;;
6424;SDS011;12193;42.642;23.384;2024-02-26T04:30:51;15.07;;;8.10;;
6424;SDS011;12193;42.642;23.384;2024-02-26T04:33:20;14.13;;;8.23;;
6424;SDS011;12193;42.642;23.384;2024-02-26T04:35:49;15.03;;;9.10;;
6424;SDS011;12193;42.642;23.384;2024-02-26T04:38:18;20.00;;;9.30;;
6424;SDS011;12193;42.642;23.384;2024-02-26T04:40:50;14.33;;;8.67;;
6424;SDS011;12193;42.642;23.384;2024-02-26T04:43:20;15.03;;;9.73;;
6424;SDS011;12193;42.642;23.384;2024-02-26T04:45:49;16.13;;;9.27;;
6424;SDS011;12193;42.642;23.384;2024-02-26T04:48:18;18.63;;;9.57;;
6424;SDS011;12193;42.642;23.384;2024-02-26T04:50:48;18.40;;;9.80;;
6424;SDS011;12193;42.642;23.384;2024-02-26T04:53:17;16.83;;;9.73;;
6424;SDS011;12193;42.642;23.384;2024-02-26T04:55:47;18.57;;;9.93;;
6424;SDS011;12193;42.642;23.384;2024-02-26T04:58:19;20.97;;;12.10;;
6424;SDS011;12193;42.642;23.384;2024-02-26T05:00:49;17.23;;;10.60;;
6424;SDS011;12193;42.642;23.384;2024-02-26T05:03:19;24.50;;;12.70;;
6424;SDS011;12193;42.642;23.384;2024-02-26T05:05:48;23.23;;;12.70;;
6424;SDS011;12193;42.642;23.384;2024-02-26T05:08:17;27.77;;;14.53;;
6424;SDS011;12193;42.642;23.384;2024-02-26T05:10:46;26.83;;;15.33;;
6424;SDS011;12193;42.642;23.384;2024-02-26T05:13:15;26.93;;;15.23;;
6424;SDS011;12193;42.642;23.384;2024-02-26T05:15:47;29.93;;;17.33;;
6424;SDS011;12193;42.642;23.384;2024-02-26T05:18:18;38.63;;;19.37;;
6424;SDS011;12193;42.642;23.384;2024-02-26T05:20:47;35.87;;;20.40;;
6424;SDS011;12193;42.642;23.384;2024-02-26T05:23:16;37.53;;;19.93;;
6424;SDS011;12193;42.642;23.384;2024-02-26T05:25:45;33.50;;;19.67;;
6424;SDS011;12193;42.642;23.384;2024-02-26T05:28:14;37.10;;;20.10;;
6424;SDS011;12193;42.642;23.384;2024-02-26T05:30:48;32.20;;;18.40;;
6424;SDS011;12193;42.642;23.384;2024-02-26T05:33:18;32.77;;;18.40;;
6424;SDS011;12193;42.642;23.384;2024-02-26T05:35:47;35.60;;;18.67;;
6424;SDS011;12193;42.642;23.384;2024-02-26T05:38:16;31.90;;;17.33;;
6424;SDS011;12193;42.642;23.384;2024-02-26T05:40:46;30.07;;;17.07;;
6424;SDS011;12193;42.642;23.384;2024-02-26T05:43:18;27.93;;;15.20;;
6424;SDS011;12193;42.642;23.384;2024-02-26T05:45:49;29.50;;;16.43;;
6424;SDS011;12193;42.642;23.384;2024-02-26T05:48:19;27.30;;;16.67;;
6424;SDS011;12193;42.642;23.384;2024-02-26T05:50:48;27.17;;;15.60;;
6424;SDS011;12193;42.642;23.384;2024-02-26T05:53:18;28.73;;;15.67;;
6424;SDS011;12193;42.642;23.384;2024-02-26T05:55:47;24.73;;;14.87;;
6424;SDS011;12193;42.642;23.384;2024-02-26T05:58:16;26.80;;;14.50;;
6424;SDS011;12193;42.642;23.384;2024-02-26T06:00:45;22.27;;;12.47;;
6424;SDS011;12193;42.642;23.384;2024-02-26T06:03:17;22.40;;;12.83;;
6424;SDS011;12193;42.642;23.384;2024-02-26T06:05:46;20.30;;;11.47;;
6424;SDS011;12193;42.642;23.384;2024-02-26T06:08:16;21.50;;;11.63;;
6424;SDS011;12193;42.642;23.384;2024-02-26T06:10:45;18.63;;;11.33;;
6424;SDS011;12193;42.642;23.384;2024-02-26T06:13:14;21.27;;;12.27;;
6424;SDS011;12193;42.642;23.384;2024-02-26T06:15:43;19.23;;;11.00;;
6424;SDS011;12193;42.642;23.384;2024-02-26T06:18:13;18.17;;;10.77;;
6424;SDS011;12193;42.642;23.384;2024-02-26T06:20:45;18.40;;;10.77;;
6424;SDS011;12193;42.642;23.384;2024-02-26T06:23:14;19.93;;;10.83;;
6424;SDS011;12193;42.642;23.384;2024-02-26T06:25:43;18.77;;;10.63;;
6424;SDS011;12193;42.642;23.384;2024-02-26T06:28:13;17.07;;;10.20;;
6424;SDS011;12193;42.642;23.384;2024-02-26T06:30:43;21.13;;;11.23;;
6424;SDS011;12193;42.642;23.384;2024-02-26T06:33:12;18.07;;;10.07;;
6424;SDS011;12193;42.642;23.384;2024-02-26T06:35:41;18.23;;;10.20;;
6424;SDS011;12193;42.642;23.384;2024-02-26T06:38:13;16.13;;;9.87;;
6424;SDS011;12193;42.642;23.384;2024-02-26T06:40:43;18.17;;;11.00;;
6424;SDS011;12193;42.642;23.384;2024-02-26T06:43:13;17.97;;;10.87;;
6424;SDS011;12193;42.642;23.384;2024-02-26T06:45:42;18.57;;;11.23;;
6424;SDS011;12193;42.642;23.384;2024-02-26T06:48:11;19.80;;;12.20;;
6424;SDS011;12193;42.642;23.384;2024-02-26T06:50:40;20.53;;;10.87;;
6424;SDS011;12193;42.642;23.384;2024-02-26T06:53:09;17.70;;;11.37;;
6424;SDS011;12193;42.642;23.384;2024-02-26T06:55:42;17.90;;;10.63;;
6424;SDS011;12193;42.642;23.384;2024-02-26T06:58:11;17.23;;;10.93;;
6424;SDS011;12193;42.642;23.384;2024-02-26T07:00:40;17.70;;;10.87;;
6424;SDS011;12193;42.642;23.384;2024-02-26T07:03:10;20.50;;;11.33;;
6424;SDS011;12193;42.642;23.384;2024-02-26T07:05:39;19.47;;;11.90;;
6424;SDS011;12193;42.642;23.384;2024-02-26T07:08:13;18.27;;;10.93;;
6424;SDS011;12193;42.642;23.384;2024-02-26T07:10:42;15.20;;;9.53;;
6424;SDS011;12193;42.642;23.384;2024-02-26T07:13:12;18.07;;;10.43;;
6424;SDS011;12193;42.642;23.384;2024-02-26T07:15:41;20.83;;;10.53;;
6424;SDS011;12193;42.642;23.384;2024-02-26T07:18:10;18.30;;;10.70;;
6424;SDS011;12193;42.642;23.384;2024-02-26T07:20:39;23.03;;;11.30;;
6424;SDS011;12193;42.642;23.384;2024-02-26T07:23:09;22.00;;;12.03;;
6424;SDS011;12193;42.642;23.384;2024-02-26T07:25:41;21.67;;;12.13;;
6424;SDS011;12193;42.642;23.384;2024-02-26T07:28:10;19.03;;;11.83;;
6424;SDS011;12193;42.642;23.384;2024-02-26T07:30:39;17.20;;;10.33;;
6424;SDS011;12193;42.642;23.384;2024-02-26T07:33:09;19.70;;;11.53;;
6424;SDS011;12193;42.642;23.384;2024-02-26T07:35:38;16.77;;;8.77;;
6424;SDS011;12193;42.642;23.384;2024-02-26T07:38:07;17.57;;;9.17;;
6424;SDS011;12193;42.642;23.384;2024-02-26T07:40:37;13.07;;;8.03;;
6424;SDS011;12193;42.642;23.384;2024-02-26T07:43:08;13.77;;;7.70;;
6424;SDS011;12193;42.642;23.384;2024-02-26T07:45:38;22.33;;;11.63;;
6424;SDS011;12193;42.642;23.384;2024-02-26T07:48:07;17.40;;;9.77;;
6424;SDS011;12193;42.642;23.384;2024-02-26T07:50:37;13.93;;;8.63;;
6424;SDS011;12193;42.642;23.384;2024-02-26T07:53:06;15.77;;;8.17;;
6424;SDS011;12193;42.642;23.384;2024-02-26T07:55:35;16.50;;;8.93;;
6424;SDS011;12193;42.642;23.384;2024-02-26T07:58:04;14.73;;;8.60;;
6424;SDS011;12193;42.642;23.384;2024-02-26T08:00:36;17.83;;;9.00;;
6424;SDS011;12193;42.642;23.384;2024-02-26T08:03:05;12.77;;;8.60;;
6424;SDS011;12193;42.642;23.384;2024-02-26T08:05:35;11.77;;;7.90;;
6424;SDS011;12193;42.642;23.384;2024-02-26T08:08:06;12.60;;;7.73;;
6424;SDS011;12193;42.642;23.384;2024-02-26T08:10:35;10.57;;;6.70;;
6424;SDS011;12193;42.642;23.384;2024-02-26T08:13:05;10.53;;;6.53;;
6424;SDS011;12193;42.642;23.384;2024-02-26T08:15:37;8.90;;;6.47;;
6424;SDS011;12193;42.642;23.384;2024-02-26T08:18:06;14.63;;;6.37;;
6424;SDS011;12193;42.642;23.384;2024-02-26T08:20:35;11.53;;;5.80;;
6424;SDS011;12193;42.642;23.384;2024-02-26T08:23:04;11.10;;;6.67;;
6424;SDS011;12193;42.642;23.384;2024-02-26T08:25:33;18.17;;;7.00;;
6424;SDS011;12193;42.642;23.384;2024-02-26T08:28:03;12.27;;;6.40;;
6424;SDS011;12193;42.642;23.384;2024-02-26T08:30:32;12.40;;;7.00;;
6424;SDS011;12193;42.642;23.384;2024-02-26T08:33:04;15.43;;;6.87;;
6424;SDS011;12193;42.642;23.384;2024-02-26T08:35:33;10.10;;;6.50;;
6424;SDS011;12193;42.642;23.384;2024-02-26T08:38:02;15.13;;;6.50;;
6424;SDS011;12193;42.642;23.384;2024-02-26T08:40:32;16.60;;;7.17;;
6424;SDS011;12193;42.642;23.384;2024-02-26T08:43:01;44.57;;;9.10;;
6424;SDS011;12193;42.642;23.384;2024-02-26T08:45:30;11.37;;;6.50;;
6424;SDS011;12193;42.642;23.384;2024-02-26T08:47:59;64.37;;;10.80;;
6424;SDS011;12193;42.642;23.384;2024-02-26T08:50:31;22.20;;;7.63;;
6424;SDS011;12193;42.642;23.384;2024-02-26T08:53:00;10.33;;;6.63;;
6424;SDS011;12193;42.642;23.384;2024-02-26T08:55:30;12.73;;;7.70;;
6424;SDS011;12193;42.642;23.384;2024-02-26T08:57:59;21.83;;;8.20;;
6424;SDS011;12193;42.642;23.384;2024-02-26T09:00:28;143.50;;;17.43;;
6424;SDS011;12193;42.642;23.384;2024-02-26T09:02:57;13.07;;;7.10;;
6424;SDS011;12193;42.642;23.384;2024-02-26T09:05:26;10.60;;;7.00;;
6424;SDS011;12193;42.642;23.384;2024-02-26T09:07:58;12.10;;;5.90;;
6424;SDS011;12193;42.642;23.384;2024-02-26T09:10:28;11.90;;;6.47;;
6424;SDS011;12193;42.642;23.384;2024-02-26T09:12:58;10.60;;;6.33;;
6424;SDS011;12193;42.642;23.384;2024-02-26T09:15:28;11.13;;;5.93;;
6424;SDS011;12193;42.642;23.384;2024-02-26T09:17:57;14.83;;;5.97;;
6424;SDS011;12193;42.642;23.384;2024-02-26T09:20:27;9.60;;;5.30;;
6424;SDS011;12193;42.642;23.384;2024-02-26T09:22:59;9.53;;;5.80;;
6424;SDS011;12193;42.642;23.384;2024-02-26T09:25:28;10.27;;;5.10;;
6424;SDS011;12193;42.642;23.384;2024-02-26T09:27:59;8.80;;;5.70;;
6424;SDS011;12193;42.642;23.384;2024-02-26T09:30:29;9.47;;;6.00;;
6424;SDS011;12193;42.642;23.384;2024-02-26T09:33:00;8.97;;;5.77;;
6424;SDS011;12193;42.642;23.384;2024-02-26T09:35:29;9.47;;;5.73;;
6424;SDS011;12193;42.642;23.384;2024-02-26T09:38:01;10.37;;;5.87;;
6424;SDS011;12193;42.642;23.384;2024-02-26T09:40:30;9.07;;;6.27;;
6424;SDS011;12193;42.642;23.384;2024-02-26T09:43:00;8.97;;;5.60;;
6424;SDS011;12193;42.642;23.384;2024-02-26T09:45:29;9.43;;;5.57;;
6424;SDS011;12193;42.642;23.384;2024-02-26T09:48:01;10.33;;;5.67;;
6424;SDS011;12193;42.642;23.384;2024-02-26T09:50:33;10.10;;;5.90;;
6424;SDS011;12193;42.642;23.384;2024-02-26T09:53:06;11.37;;;5.97;;
6424;SDS011;12193;42.642;23.384;2024-02-26T09:55:37;12.00;;;6.40;;
6424;SDS011;12193;42.642;23.384;2024-02-26T09:58:06;10.00;;;5.77;;
6424;SDS011;12193;42.642;23.384;2024-02-26T10:00:36;12.00;;;5.77;;
6424;SDS011;12193;42.642;23.384;2024-02-26T10:03:09;10.37;;;5.70;;
6424;SDS011;12193;42.642;23.384;2024-02-26T10:05:42;8.07;;;5.47;;
6424;SDS011;12193;42.642;23.384;2024-02-26T10:08:15;10.43;;;4.80;;
6424;SDS011;12193;42.642;23.384;2024-02-26T10:10:48;10.13;;;6.20;;
6424;SDS011;12193;42.642;23.384;2024-02-26T10:13:18;8.90;;;4.57;;
6424;SDS011;12193;42.642;23.384;2024-02-26T10:15:48;9.03;;;6.00;;
6424;SDS011;12193;42.642;23.384;2024-02-26T10:18:18;8.37;;;5.73;;
6424;SDS011;12193;42.642;23.384;2024-02-26T10:20:58;12.10;;;5.67;;
6424;SDS011;12193;42.642;23.384;2024-02-26T10:23:31;9.27;;;6.20;;
6424;SDS011;12193;42.642;23.384;2024-02-26T10:26:00;8.20;;;5.30;;
6424;SDS011;12193;42.642;23.384;2024-02-26T10:28:31;8.83;;;4.83;;
6424;SDS011;12193;42.642;23.384;2024-02-26T10:31:00;5.80;;;4.93;;
6424;SDS011;12193;42.642;23.384;2024-02-26T10:33:29;8.13;;;5.27;;
6424;SDS011;12193;42.642;23.384;2024-02-26T10:36:01;11.13;;;5.57;;
6424;SDS011;12193;42.642;23.384;2024-02-26T10:38:34;7.83;;;4.87;;
6424;SDS011;12193;42.642;23.384;2024-02-26T10:41:03;7.13;;;4.47;;
6424;SDS011;12193;42.642;23.384;2024-02-26T10:43:34;8.33;;;5.73;;
6424;SDS011;12193;42.642;23.384;2024-02-26T10:46:03;8.63;;;5.70;;
6424;SDS011;12193;42.642;23.384;2024-02-26T10:48:33;8.40;;;5.70;;
6424;SDS011;12193;42.642;23.384;2024-02-26T10:51:03;7.53;;;4.97;;
6424;SDS011;12193;42.642;23.384;2024-02-26T10:53:37;10.23;;;5.70;;
6424;SDS011;12193;42.642;23.384;2024-02-26T10:56:07;10.30;;;5.57;;
6424;SDS011;12193;42.642;23.384;2024-02-26T10:58:39;9.50;;;5.60;;
6424;SDS011;12193;42.642;23.384;2024-02-26T11:01:09;8.20;;;5.80;;
6424;SDS011;12193;42.642;23.384;2024-02-26T11:03:40;8.07;;;4.97;;
6424;SDS011;12193;42.642;23.384;2024-02-26T11:06:09;9.73;;;5.90;;
6424;SDS011;12193;42.642;23.384;2024-02-26T11:08:41;7.50;;;4.93;;
6424;SDS011;12193;42.642;23.384;2024-02-26T11:11:11;8.60;;;4.93;;
6424;SDS011;12193;42.642;23.384;2024-02-26T11:13:41;8.70;;;5.40;;
6424;SDS011;12193;42.642;23.384;2024-02-26T11:16:15;9.10;;;4.70;;
6424;SDS011;12193;42.642;23.384;2024-02-26T11:18:47;7.47;;;4.93;;
6424;SDS011;12193;42.642;23.384;2024-02-26T11:21:17;9.73;;;5.30;;
6424;SDS011;12193;42.642;23.384;2024-02-26T11:23:55;9.27;;;4.97;;
6424;SDS011;12193;42.642;23.384;2024-02-26T11:26:25;6.90;;;5.03;;
6424;SDS011;12193;42.642;23.384;2024-02-26T11:28:56;7.27;;;5.40;;
6424;SDS011;12193;42.642;23.384;2024-02-26T11:31:26;7.73;;;5.20;;
6424;SDS011;12193;42.642;23.384;2024-02-26T11:33:56;6.43;;;5.43;;
6424;SDS011;12193;42.642;23.384;2024-02-26T11:36:25;7.87;;;4.80;;
6424;SDS011;12193;42.642;23.384;2024-02-26T11:38:57;7.67;;;5.40;;
6424;SDS011;12193;42.642;23.384;2024-02-26T11:41:27;8.33;;;4.93;;
6424;SDS011;12193;42.642;23.384;2024-02-26T11:43:57;8.63;;;5.60;;
6424;SDS011;12193;42.642;23.384;2024-02-26T11:46:28;7.93;;;4.93;;
6424;SDS011;12193;42.642;23.384;2024-02-26T11:48:59;7.00;;;4.20;;
6424;SDS011;12193;42.642;23.384;2024-02-26T11:51:32;6.77;;;5.03;;
6424;SDS011;12193;42.642;23.384;2024-02-26T11:54:05;6.97;;;4.53;;
6424;SDS011;12193;42.642;23.384;2024-02-26T11:56:34;7.63;;;4.30;;
6424;SDS011;12193;42.642;23.384;2024-02-26T11:59:09;7.07;;;4.60;;
6424;SDS011;12193;42.642;23.384;2024-02-26T12:01:40;8.40;;;5.10;;
6424;SDS011;12193;42.642;23.384;2024-02-26T12:04:18;7.77;;;4.60;;
6424;SDS011;12193;42.642;23.384;2024-02-26T12:06:51;6.77;;;4.60;;
6424;SDS011;12193;42.642;23.384;2024-02-26T12:09:34;10.43;;;4.73;;
6424;SDS011;12193;42.642;23.384;2024-02-26T12:12:05;7.50;;;4.20;;
6424;SDS011;12193;42.642;23.384;2024-02-26T12:14:37;6.63;;;4.20;;
6424;SDS011;12193;42.642;23.384;2024-02-26T12:17:07;8.53;;;4.43;;
6424;SDS011;12193;42.642;23.384;2024-02-26T12:19:44;6.33;;;4.50;;
6424;SDS011;12193;42.642;23.384;2024-02-26T12:22:13;5.90;;;4.13;;
6424;SDS011;12193;42.642;23.384;2024-02-26T12:24:45;7.50;;;4.90;;
6424;SDS011;12193;42.642;23.384;2024-02-26T12:27:14;6.70;;;4.30;;
6424;SDS011;12193;42.642;23.384;2024-02-26T12:29:43;7.83;;;4.57;;
6424;SDS011;12193;42.642;23.384;2024-02-26T12:32:13;7.33;;;4.70;;
6424;SDS011;12193;42.642;23.384;2024-02-26T12:34:42;7.20;;;4.07;;
6424;SDS011;12193;42.642;23.384;2024-02-26T12:37:14;6.23;;;4.50;;
6424;SDS011;12193;42.642;23.384;2024-02-26T12:39:45;7.30;;;4.67;;
6424;SDS011;12193;42.642;23.384;2024-02-26T12:42:15;5.53;;;4.20;;
6424;SDS011;12193;42.642;23.384;2024-02-26T12:44:44;7.27;;;4.50;;
6424;SDS011;12193;42.642;23.384;2024-02-26T12:47:13;8.07;;;4.90;;
6424;SDS011;12193;42.642;23.384;2024-02-26T12:49:45;5.13;;;3.90;;
6424;SDS011;12193;42.642;23.384;2024-02-26T12:52:16;6.97;;;4.50;;
6424;SDS011;12193;42.642;23.384;2024-02-26T12:54:48;8.63;;;4.60;;
6424;SDS011;12193;42.642;23.384;2024-02-26T12:57:18;8.03;;;5.63;;
6424;SDS011;12193;42.642;23.384;2024-02-26T12:59:48;7.23;;;4.13;;
6424;SDS011;12193;42.642;23.384;2024-02-26T13:02:17;8.93;;;4.70;;
6424;SDS011;12193;42.642;23.384;2024-02-26T13:04:47;7.30;;;4.37;;
6424;SDS011;12193;42.642;23.384;2024-02-26T13:07:16;6.93;;;4.50;;
6424;SDS011;12193;42.642;23.384;2024-02-26T13:09:45;8.10;;;4.30;;
6424;SDS011;12193;42.642;23.384;2024-02-26T13:12:18;7.77;;;4.73;;
6424;SDS011;12193;42.642;23.384;2024-02-26T13:14:47;10.97;;;4.70;;
6424;SDS011;12193;42.642;23.384;2024-02-26T13:17:20;5.83;;;4.00;;
6424;SDS011;12193;42.642;23.384;2024-02-26T13:19:53;9.10;;;3.63;;
6424;SDS011;12193;42.642;23.384;2024-02-26T13:22:23;6.60;;;3.70;;
6424;SDS011;12193;42.642;23.384;2024-02-26T13:24:58;7.27;;;4.17;;
6424;SDS011;12193;42.642;23.384;2024-02-26T13:27:29;7.63;;;3.57;;
6424;SDS011;12193;42.642;23.384;2024-02-26T13:30:02;7.37;;;4.20;;
6424;SDS011;12193;42.642;23.384;2024-02-26T13:32:37;4.93;;;3.80;;
6424;SDS011;12193;42.642;23.384;2024-02-26T13:35:09;4.83;;;3.90;;
6424;SDS011;12193;42.642;23.384;2024-02-26T13:37:40;5.30;;;4.00;;
6424;SDS011;12193;42.642;23.384;2024-02-26T13:40:12;6.43;;;3.90;;
6424;SDS011;12193;42.642;23.384;2024-02-26T13:42:42;7.93;;;4.07;;
6424;SDS011;12193;42.642;23.384;2024-02-26T13:45:11;8.40;;;4.03;;
6424;SDS011;12193;42.642;23.384;2024-02-26T13:47:40;5.67;;;3.87;;
6424;SDS011;12193;42.642;23.384;2024-02-26T13:50:10;5.50;;;3.60;;
6424;SDS011;12193;42.642;23.384;2024-02-26T13:52:39;4.53;;;3.50;;
6424;SDS011;12193;42.642;23.384;2024-02-26T13:55:09;6.93;;;4.03;;
6424;SDS011;12193;42.642;23.384;2024-02-26T13:57:40;7.53;;;3.97;;
6424;SDS011;12193;42.642;23.384;2024-02-26T14:00:10;6.23;;;3.60;;
6424;SDS011;12193;42.642;23.384;2024-02-26T14:02:40;9.17;;;4.50;;
6424;SDS011;12193;42.642;23.384;2024-02-26T14:05:09;8.67;;;3.73;;
6424;SDS011;12193;42.642;23.384;2024-02-26T14:07:39;5.53;;;3.63;;
6424;SDS011;12193;42.642;23.384;2024-02-26T14:10:08;9.23;;;3.43;;
6424;SDS011;12193;42.642;23.384;2024-02-26T14:12:44;6.10;;;3.70;;
6424;SDS011;12193;42.642;23.384;2024-02-26T14:15:13;9.13;;;3.60;;
6424;SDS011;12193;42.642;23.384;2024-02-26T14:17:43;5.40;;;3.33;;
6424;SDS011;12193;42.642;23.384;2024-02-26T14:20:19;10.07;;;4.00;;
6424;SDS011;12193;42.642;23.384;2024-02-26T14:22:48;6.60;;;3.60;;
6424;SDS011;12193;42.642;23.384;2024-02-26T14:25:19;8.97;;;3.30;;
6424;SDS011;12193;42.642;23.384;2024-02-26T14:27:51;4.57;;;3.60;;
6424;SDS011;12193;42.642;23.384;2024-02-26T14:30:20;5.37;;;3.37;;
6424;SDS011;12193;42.642;23.384;2024-02-26T14:32:49;4.97;;;3.30;;
6424;SDS011;12193;42.642;23.384;2024-02-26T14:35:18;6.90;;;3.60;;
6424;SDS011;12193;42.642;23.384;2024-02-26T14:37:47;8.27;;;3.47;;
6424;SDS011;12193;42.642;23.384;2024-02-26T14:40:17;4.73;;;3.13;;
6424;SDS011;12193;42.642;23.384;2024-02-26T14:42:47;5.60;;;3.63;;
6424;SDS011;12193;42.642;23.384;2024-02-26T14:45:19;6.00;;;3.50;;
6424;SDS011;12193;42.642;23.384;2024-02-26T14:47:48;6.93;;;3.97;;
6424;SDS011;12193;42.642;23.384;2024-02-26T14:50:18;12.10;;;4.33;;
6424;SDS011;12193;42.642;23.384;2024-02-26T14:52:47;5.73;;;3.70;;
6424;SDS011;12193;42.642;23.384;2024-02-26T14:55:16;7.00;;;3.90;;
6424;SDS011;12193;42.642;23.384;2024-02-26T14:57:45;8.70;;;4.30;;
6424;SDS011;12193;42.642;23.384;2024-02-26T15:00:15;6.57;;;3.50;;
6424;SDS011;12193;42.642;23.384;2024-02-26T15:02:47;7.20;;;4.43;;
6424;SDS011;12193;42.642;23.384;2024-02-26T15:05:17;7.37;;;4.30;;
6424;SDS011;12193;42.642;23.384;2024-02-26T15:07:46;6.07;;;3.87;;
6424;SDS011;12193;42.642;23.384;2024-02-26T15:10:15;6.83;;;3.87;;
6424;SDS011;12193;42.642;23.384;2024-02-26T15:12:45;5.67;;;3.63;;
6424;SDS011;12193;42.642;23.384;2024-02-26T15:15:17;7.57;;;4.10;;
6424;SDS011;12193;42.642;23.384;2024-02-26T15:17:48;7.03;;;3.70;;
6424;SDS011;12193;42.642;23.384;2024-02-26T15:20:18;8.30;;;3.97;;
6424;SDS011;12193;42.642;23.384;2024-02-26T15:22:48;5.17;;;3.37;;
6424;SDS011;12193;42.642;23.384;2024-02-26T15:25:17;8.70;;;3.50;;
6424;SDS011;12193;42.642;23.384;2024-02-26T15:27:46;7.33;;;4.07;;
6424;SDS011;12193;42.642;23.384;2024-02-26T15:30:15;8.53;;;3.63;;
6424;SDS011;12193;42.642;23.384;2024-02-26T15:32:48;6.63;;;3.60;;
6424;SDS011;12193;42.642;23.384;2024-02-26T15:35:17;9.10;;;3.70;;
6424;SDS011;12193;42.642;23.384;2024-02-26T15:37:47;8.03;;;4.60;;
6424;SDS011;12193;42.642;23.384;2024-02-26T15:40:16;7.80;;;4.10;;
6424;SDS011;12193;42.642;23.384;2024-02-26T15:42:47;9.70;;;4.60;;
6424;SDS011;12193;42.642;23.384;2024-02-26T15:45:16;11.10;;;4.70;;
6424;SDS011;12193;42.642;23.384;2024-02-26T15:47:48;9.27;;;4.40;;
6424;SDS011;12193;42.642;23.384;2024-02-26T15:50:17;9.30;;;4.23;;
6424;SDS011;12193;42.642;23.384;2024-02-26T15:52:47;9.63;;;4.70;;
6424;SDS011;12193;42.642;23.384;2024-02-26T15:55:16;8.10;;;4.57;;
6424;SDS011;12193;42.642;23.384;2024-02-26T15:57:46;10.17;;;4.97;;
6424;SDS011;12193;42.642;23.384;2024-02-26T16:00:15;6.77;;;4.23;;
6424;SDS011;12193;42.642;23.384;2024-02-26T16:02:49;10.50;;;4.03;;
6424;SDS011;12193;42.642;23.384;2024-02-26T16:05:18;7.33;;;4.30;;
6424;SDS011;12193;42.642;23.384;2024-02-26T16:07:48;8.37;;;4.20;;
6424;SDS011;12193;42.642;23.384;2024-02-26T16:10:21;7.23;;;4.53;;
6424;SDS011;12193;42.642;23.384;2024-02-26T16:12:53;9.07;;;4.40;;
6424;SDS011;12193;42.642;23.384;2024-02-26T16:15:25;10.60;;;5.10;;
6424;SDS011;12193;42.642;23.384;2024-02-26T16:17:57;12.13;;;5.53;;
6424;SDS011;12193;42.642;23.384;2024-02-26T16:20:27;10.17;;;4.77;;
6424;SDS011;12193;42.642;23.384;2024-02-26T16:22:59;7.57;;;4.50;;
6424;SDS011;12193;42.642;23.384;2024-02-26T16:25:31;6.80;;;4.30;;
6424;SDS011;12193;42.642;23.384;2024-02-26T16:28:01;7.80;;;4.23;;
6424;SDS011;12193;42.642;23.384;2024-02-26T16:30:30;11.30;;;5.63;;
6424;SDS011;12193;42.642;23.384;2024-02-26T16:33:03;15.60;;;6.20;;
6424;SDS011;12193;42.642;23.384;2024-02-26T16:35:32;14.90;;;6.00;;
6424;SDS011;12193;42.642;23.384;2024-02-26T16:38:01;16.57;;;7.60;;
6424;SDS011;12193;42.642;23.384;2024-02-26T16:40:30;14.70;;;6.27;;
6424;SDS011;12193;42.642;23.384;2024-02-26T16:43:01;14.60;;;6.50;;
6424;SDS011;12193;42.642;23.384;2024-02-26T16:45:32;18.33;;;7.03;;
6424;SDS011;12193;42.642;23.384;2024-02-26T16:48:04;13.63;;;5.67;;
6424;SDS011;12193;42.642;23.384;2024-02-26T16:50:33;7.47;;;4.53;;
6424;SDS011;12193;42.642;23.384;2024-02-26T16:53:03;6.97;;;4.10;;
6424;SDS011;12193;42.642;23.384;2024-02-26T16:55:32;8.77;;;4.40;;
6424;SDS011;12193;42.642;23.384;2024-02-26T16:58:01;8.73;;;4.43;;
6424;SDS011;12193;42.642;23.384;2024-02-26T17:00:30;8.77;;;4.47;;
6424;SDS011;12193;42.642;23.384;2024-02-26T17:02:59;9.80;;;4.50;;
6424;SDS011;12193;42.642;23.384;2024-02-26T17:05:31;8.37;;;4.33;;
6424;SDS011;12193;42.642;23.384;2024-02-26T17:08:01;10.27;;;4.90;;
6424;SDS011;12193;42.642;23.384;2024-02-26T17:10:30;13.73;;;6.50;;
6424;SDS011;12193;42.642;23.384;2024-02-26T17:12:59;13.47;;;6.93;;
6424;SDS011;12193;42.642;23.384;2024-02-26T17:15:29;16.50;;;8.57;;
6424;SDS011;12193;42.642;23.384;2024-02-26T17:17:58;14.53;;;8.97;;
6424;SDS011;12193;42.642;23.384;2024-02-26T17:20:27;14.13;;;6.93;;
6424;SDS011;12193;42.642;23.384;2024-02-26T17:22:59;13.53;;;6.37;;
6424;SDS011;12193;42.642;23.384;2024-02-26T17:25:28;11.13;;;5.80;;
6424;SDS011;12193;42.642;23.384;2024-02-26T17:27:57;10.30;;;5.67;;
6424;SDS011;12193;42.642;23.384;2024-02-26T17:30:27;10.80;;;5.07;;
6424;SDS011;12193;42.642;23.384;2024-02-26T17:32:56;6.73;;;4.57;;
6424;SDS011;12193;42.642;23.384;2024-02-26T17:35:26;9.70;;;4.93;;
6424;SDS011;12193;42.642;23.384;2024-02-26T17:37:55;11.07;;;4.77;;
6424;SDS011;12193;42.642;23.384;2024-02-26T17:40:29;9.63;;;4.30;;
6424;SDS011;12193;42.642;23.384;2024-02-26T17:42:58;6.97;;;4.57;;
6424;SDS011;12193;42.642;23.384;2024-02-26T17:45:28;7.87;;;4.63;;
6424;SDS011;12193;42.642;23.384;2024-02-26T17:47:57;7.53;;;4.50;;
6424;SDS011;12193;42.642;23.384;2024-02-26T17:50:26;8.10;;;4.00;;
6424;SDS011;12193;42.642;23.384;2024-02-26T17:52:55;9.57;;;4.33;;
6424;SDS011;12193;42.642;23.384;2024-02-26T17:55:24;6.73;;;3.87;;
6424;SDS011;12193;42.642;23.384;2024-02-26T17:57:57;9.97;;;4.50;;